Time;durP1;ratioP1;P1;durP2;ratioP2;P2;SDS_P1;SDS_P2;PMS_P1;PMS_P2;Temp;Humidity;BMP_temperature;BMP_pressure;BME280_temperature;BME280_humidity;BME280_pressure;Samples;Min_cycle;Max_cycle;Signal;HPM_P1;HPM_P2
2023/12/10 00:01:03;;;;;;;6.30;2.80;;;;;;;-1.95;100.00;100783.64;109411;1253;65982;-57
2023/12/10 00:03:31;;;;;;;6.40;3.30;;;;;;;-1.98;100.00;100783.11;109421;1253;72737;-57
2023/12/10 00:05:59;;;;;;;7.00;3.40;;;;;;;-1.99;100.00;100778.25;109396;1253;59672;-60
2023/12/10 00:08:39;;;;;;;5.00;2.90;;;;;;;-2.01;100.00;100775.29;109453;1253;60121;-58
2023/12/10 00:11:07;;;;;;;7.80;3.10;;;;;;;-2.02;100.00;100773.50;109420;1252;74682;-58
2023/12/10 00:13:35;;;;;;;6.80;3.30;;;;;;;-2.03;100.00;100767.27;109416;1253;65790;-58
2023/12/10 00:16:03;;;;;;;10.10;3.40;;;;;;;-2.05;100.00;100769.58;109369;1252;72721;-60
2023/12/10 00:18:31;;;;;;;5.20;3.20;;;;;;;-2.08;100.00;100772.67;109426;1253;59666;-58
2023/12/10 00:20:58;;;;;;;6.10;3.10;;;;;;;-2.11;100.00;100773.65;109515;1252;58923;-57
2023/12/10 00:23:26;;;;;;;6.90;3.60;;;;;;;-2.13;100.00;100774.81;109425;1253;73444;-57
2023/12/10 00:25:54;;;;;;;8.10;3.50;;;;;;;-2.15;100.00;100774.59;109390;1253;66276;-67
2023/12/10 00:28:21;;;;;;;5.90;2.70;;;;;;;-2.15;100.00;100777.33;109419;1252;72673;-57
2023/12/10 00:30:49;;;;;;;5.90;2.80;;;;;;;-2.16;100.00;100778.94;109253;1254;59644;-57
2023/12/10 00:33:17;;;;;;;4.50;2.90;;;;;;;-2.19;100.00;100774.48;109352;1252;60074;-58
2023/12/10 00:35:45;;;;;;;8.00;3.50;;;;;;;-2.22;100.00;100769.86;109439;1252;74721;-57
2023/12/10 00:38:12;;;;;;;8.10;3.30;;;;;;;-2.23;100.00;100766.71;109382;1252;66937;-64
2023/12/10 00:40:40;;;;;;;6.20;3.50;;;;;;;-2.24;100.00;100764.84;109424;1252;71462;-58
2023/12/10 00:43:08;;;;;;;7.50;3.90;;;;;;;-2.24;100.00;100762.81;109378;1253;60993;-58
2023/12/10 00:45:36;;;;;;;6.10;3.50;;;;;;;-2.25;100.00;100762.20;109440;1253;60265;-57
2023/12/10 00:48:04;;;;;;;6.00;3.40;;;;;;;-2.30;100.00;100758.58;109425;1252;74763;-58
2023/12/10 00:50:32;;;;;;;6.30;3.00;;;;;;;-2.33;100.00;100764.71;109399;1254;66914;-57
2023/12/10 00:53:03;;;;;;;8.20;2.90;;;;;;;-2.36;100.00;100758.29;109206;1252;71490;-57
2023/12/10 00:55:31;;;;;;;7.80;3.30;;;;;;;-2.41;100.00;100761.75;109425;1253;60920;-57
2023/12/10 00:57:58;;;;;;;6.90;3.20;;;;;;;-2.44;100.00;100759.39;109477;1252;59456;-57
2023/12/10 01:00:26;;;;;;;6.80;3.70;;;;;;;-2.46;100.00;100757.27;109397;1253;75107;-61
2023/12/10 01:02:55;;;;;;;8.30;3.10;;;;;;;-2.45;100.00;100761.82;109429;1253;66846;-57
2023/12/10 01:05:22;;;;;;;4.90;2.50;;;;;;;-2.45;100.00;100754.00;109380;1252;71442;-58
2023/12/10 01:07:50;;;;;;;4.90;2.70;;;;;;;-2.46;100.00;100751.82;109374;1253;60948;-57
2023/12/10 01:10:19;;;;;;;7.80;3.10;;;;;;;-2.47;100.00;100753.75;109330;1253;60067;-59
2023/12/10 01:12:47;;;;;;;6.50;3.30;;;;;;;-2.48;100.00;100749.39;109460;1252;74645;-57
2023/12/10 01:15:16;;;;;;;6.30;3.20;;;;;;;-2.48;100.00;100743.80;109428;1252;66236;-57
2023/12/10 01:17:43;;;;;;;7.70;3.20;;;;;;;-2.46;100.00;100744.52;109410;1252;71020;-57
2023/12/10 01:20:11;;;;;;;7.70;3.50;;;;;;;-2.46;100.00;100737.86;109397;1253;60997;-62
2023/12/10 01:22:39;;;;;;;7.50;3.00;;;;;;;-2.42;100.00;100737.67;109441;1253;60039;-57
2023/12/10 01:25:07;;;;;;;6.30;2.60;;;;;;;-2.42;100.00;100736.30;109448;1253;74771;-58
2023/12/10 01:27:34;;;;;;;7.70;3.20;;;;;;;-2.44;100.00;100742.00;109430;1252;66949;-58
2023/12/10 01:30:02;;;;;;;6.00;2.70;;;;;;;-2.45;100.00;100745.33;109401;1252;72715;-57
2023/12/10 01:32:30;;;;;;;5.30;2.80;;;;;;;-2.48;100.00;100740.04;109365;1252;59965;-57
2023/12/10 01:34:58;;;;;;;5.00;2.70;;;;;;;-2.52;100.00;100739.39;109420;1253;60224;-58
2023/12/10 01:37:26;;;;;;;7.00;3.30;;;;;;;-2.53;100.00;100733.70;109405;1252;74751;-57
2023/12/10 01:39:54;;;;;;;6.60;2.60;;;;;;;-2.52;100.00;100738.05;109401;1253;64650;-59
2023/12/10 01:42:22;;;;;;;6.20;3.10;;;;;;;-2.51;100.00;100736.98;109363;1253;71476;-58
2023/12/10 01:44:49;;;;;;;7.70;3.80;;;;;;;-2.50;100.00;100742.04;109370;1253;61216;-57
2023/12/10 01:47:18;;;;;;;6.00;3.10;;;;;;;-2.50;100.00;100742.54;109418;1252;60137;-57
2023/12/10 01:49:46;;;;;;;6.20;2.70;;;;;;;-2.53;100.00;100737.09;109414;1252;74673;-57
2023/12/10 01:52:13;;;;;;;7.70;2.40;;;;;;;-2.55;100.00;100746.23;109296;1252;66939;-65
2023/12/10 01:54:41;;;;;;;7.40;2.40;;;;;;;-2.56;100.00;100748.00;109415;1253;72643;-58
2023/12/10 01:57:09;;;;;;;5.60;2.90;;;;;;;-2.57;100.00;100746.70;109387;1253;59460;-58
2023/12/10 01:59:36;;;;;;;6.30;2.60;;;;;;;-2.58;100.00;100742.17;109268;1252;59019;-57
2023/12/10 02:02:05;;;;;;;6.00;3.10;;;;;;;-2.60;100.00;100744.85;109388;1253;74772;-58
2023/12/10 02:04:33;;;;;;;4.60;2.20;;;;;;;-2.62;100.00;100746.13;109387;1252;66301;-57
2023/12/10 02:07:00;;;;;;;5.30;2.70;;;;;;;-2.64;100.00;100746.71;109451;1252;72728;-57
2023/12/10 02:09:28;;;;;;;8.40;2.60;;;;;;;-2.67;100.00;100744.17;109459;1253;59579;-57
2023/12/10 02:11:56;;;;;;;4.80;2.50;;;;;;;-2.68;100.00;100745.47;109462;1253;60114;-57
2023/12/10 02:14:24;;;;;;;7.80;2.60;;;;;;;-2.68;100.00;100745.64;109381;1252;74665;-62
2023/12/10 02:16:52;;;;;;;6.80;3.30;;;;;;;-2.67;100.00;100749.14;109399;1252;67188;-57
2023/12/10 02:19:19;;;;;;;6.50;3.20;;;;;;;-2.67;100.00;100761.02;109434;1252;72759;-56
2023/12/10 02:21:47;;;;;;;6.40;2.70;;;;;;;-2.68;100.00;100753.28;109356;1252;59643;-56
2023/12/10 02:24:16;;;;;;;6.30;2.70;;;;;;;-2.70;100.00;100762.39;109258;1252;58849;-61
2023/12/10 02:26:44;;;;;;;6.50;2.60;;;;;;;-2.72;100.00;100761.27;109413;1253;74772;-56
2023/12/10 02:29:12;;;;;;;4.60;2.10;;;;;;;-2.73;100.00;100760.83;109455;1252;67007;-58
2023/12/10 02:31:40;;;;;;;5.10;2.40;;;;;;;-2.74;100.00;100758.14;109311;1253;71423;-56
2023/12/10 02:34:07;;;;;;;5.20;1.70;;;;;;;-2.74;100.00;100759.16;109267;1253;59552;-66
2023/12/10 02:36:35;;;;;;;6.60;2.30;;;;;;;-2.76;100.00;100758.94;109230;1253;60067;-57
2023/12/10 02:39:04;;;;;;;7.60;3.00;;;;;;;-2.78;100.00;100752.60;109281;1253;74923;-57
2023/12/10 02:41:31;;;;;;;5.50;2.00;;;;;;;-2.79;100.00;100754.40;109273;1253;67420;-57
2023/12/10 02:43:59;;;;;;;4.80;1.80;;;;;;;-2.79;100.00;100753.20;109210;1253;72756;-58
2023/12/10 02:46:27;;;;;;;7.50;2.90;;;;;;;-2.79;100.00;100758.61;109191;1253;59505;-59
2023/12/10 02:48:54;;;;;;;7.20;2.80;;;;;;;-2.77;100.00;100764.95;109204;1253;59069;-57
2023/12/10 02:51:22;;;;;;;7.10;2.90;;;;;;;-2.75;100.00;100767.60;109076;1253;74755;-57
2023/12/10 02:53:50;;;;;;;4.50;2.30;;;;;;;-2.75;100.00;100774.55;109253;1253;65624;-57
2023/12/10 02:56:18;;;;;;;5.30;2.70;;;;;;;-2.77;100.00;100776.36;109114;1253;71451;-66
2023/12/10 02:58:45;;;;;;;6.90;2.50;;;;;;;-2.79;100.00;100773.63;109215;1254;59714;-59
2023/12/10 03:01:13;;;;;;;5.10;2.10;;;;;;;-2.81;100.00;100774.88;109268;1253;58936;-57
2023/12/10 03:03:41;;;;;;;8.50;2.00;;;;;;;-2.83;100.00;100771.95;109284;1253;73471;-57
2023/12/10 03:06:10;;;;;;;4.60;2.10;;;;;;;-2.86;100.00;100771.42;109323;1253;66180;-57
2023/12/10 03:08:38;;;;;;;4.40;2.10;;;;;;;-2.90;100.00;100771.47;109191;1254;72879;-58
2023/12/10 03:11:06;;;;;;;5.20;2.40;;;;;;;-2.94;100.00;100773.23;109252;1253;60871;-57
2023/12/10 03:13:33;;;;;;;4.70;2.20;;;;;;;-2.98;100.00;100776.98;109236;1253;58882;-56
2023/12/10 03:16:01;;;;;;;5.00;2.00;;;;;;;-3.02;100.00;100778.94;109299;1253;74749;-56
2023/12/10 03:18:29;;;;;;;4.30;2.00;;;;;;;-3.06;100.00;100783.92;109232;1253;67027;-61
2023/12/10 03:20:56;;;;;;;5.20;1.90;;;;;;;-3.09;100.00;100794.66;109237;1253;73164;-56
2023/12/10 03:23:24;;;;;;;5.60;2.20;;;;;;;-3.10;100.00;100791.64;109246;1253;60991;-57
2023/12/10 03:25:52;;;;;;;4.10;1.90;;;;;;;-3.10;100.00;100790.42;109224;1253;59221;-56
2023/12/10 03:28:19;;;;;;;5.90;2.20;;;;;;;-3.09;100.00;100790.18;109241;1253;74769;-56
2023/12/10 03:30:47;;;;;;;6.30;1.80;;;;;;;-3.13;100.00;100786.85;109205;1252;66313;-57
2023/12/10 03:33:15;;;;;;;5.40;2.40;;;;;;;-3.08;100.00;100785.22;109395;1252;72683;-56
2023/12/10 03:35:43;;;;;;;6.50;2.40;;;;;;;-3.06;100.00;100782.06;109371;1252;59432;-57
2023/12/10 03:38:10;;;;;;;6.40;2.50;;;;;;;-3.04;100.00;100784.33;109441;1252;60027;-57
2023/12/10 03:40:38;;;;;;;5.90;2.20;;;;;;;-3.06;100.00;100784.09;109378;1253;74717;-59
2023/12/10 03:43:05;;;;;;;5.30;2.80;;;;;;;-3.10;100.00;100787.54;109273;1252;66098;-57
2023/12/10 03:45:33;;;;;;;7.20;3.00;;;;;;;-3.13;100.00;100782.76;109423;1253;72732;-56
2023/12/10 03:48:01;;;;;;;6.70;2.60;;;;;;;-3.11;100.00;100786.57;109412;1252;59986;-56
2023/12/10 03:50:28;;;;;;;4.70;2.60;;;;;;;-3.13;100.00;100787.71;109437;1253;60249;-56
2023/12/10 03:52:56;;;;;;;6.30;2.80;;;;;;;-3.13;100.00;100790.09;109388;1252;73368;-62
2023/12/10 03:55:24;;;;;;;11.10;2.90;;;;;;;-3.14;100.00;100791.65;109417;1253;66498;-56
2023/12/10 03:57:51;;;;;;;7.00;2.60;;;;;;;-3.13;100.00;100794.02;109416;1253;72754;-56
2023/12/10 04:00:19;;;;;;;8.30;2.70;;;;;;;-3.14;100.00;100793.01;109441;1253;59970;-56
2023/12/10 04:02:47;;;;;;;6.80;2.60;;;;;;;-3.15;100.00;100791.35;109432;1252;60158;-57
2023/12/10 04:05:15;;;;;;;4.80;1.80;;;;;;;-3.19;100.00;100790.04;109383;1253;74741;-59
2023/12/10 04:07:42;;;;;;;4.20;2.10;;;;;;;-3.21;100.00;100795.60;109384;1252;67100;-56
2023/12/10 04:10:10;;;;;;;6.30;2.30;;;;;;;-3.26;100.00;100802.32;109428;1252;72738;-58
2023/12/10 04:12:38;;;;;;;4.20;2.00;;;;;;;-3.31;100.00;100801.57;109400;1252;59821;-56
2023/12/10 04:15:06;;;;;;;4.60;2.20;;;;;;;-3.33;100.00;100800.30;109439;1253;60348;-63
2023/12/10 04:17:33;;;;;;;5.30;2.30;;;;;;;-3.34;100.00;100804.12;109357;1253;74884;-56
2023/12/10 04:20:01;;;;;;;9.50;2.50;;;;;;;-3.36;100.00;100805.58;109404;1252;66980;-57
2023/12/10 04:22:29;;;;;;;9.10;3.10;;;;;;;-3.34;100.00;100803.27;109429;1252;72099;-56
2023/12/10 04:24:57;;;;;;;5.30;2.30;;;;;;;-3.34;100.00;100804.45;109381;1252;58958;-57
2023/12/10 04:27:25;;;;;;;9.20;2.70;;;;;;;-3.35;100.00;100804.67;109355;1252;59566;-65
2023/12/10 04:29:53;;;;;;;7.40;2.10;;;;;;;-3.36;100.00;100811.86;109421;1252;73419;-56
2023/12/10 04:32:21;;;;;;;5.00;2.00;;;;;;;-3.40;100.00;100811.91;109302;1252;67120;-57
2023/12/10 04:34:48;;;;;;;4.50;1.70;;;;;;;-3.45;100.00;100810.81;109413;1253;71183;-56
2023/12/10 04:37:17;;;;;;;7.20;1.90;;;;;;;-3.49;100.00;100825.27;109345;1253;59678;-57
2023/12/10 04:39:45;;;;;;;4.40;2.30;;;;;;;-3.53;100.00;100820.23;109405;1252;58997;-56
2023/12/10 04:42:12;;;;;;;6.00;2.70;;;;;;;-3.57;100.00;100818.56;109408;1253;74671;-56
2023/12/10 04:44:40;;;;;;;7.40;2.10;;;;;;;-3.59;100.00;100821.71;109338;1252;65712;-56
2023/12/10 04:47:08;;;;;;;6.80;2.70;;;;;;;-3.58;100.00;100819.64;109374;1253;70597;-56
2023/12/10 04:49:35;;;;;;;5.50;2.20;;;;;;;-3.58;100.00;100823.37;109416;1253;59290;-56
2023/12/10 04:52:05;;;;;;;7.90;2.50;;;;;;;-3.59;100.00;100821.88;109430;1253;59058;-55
2023/12/10 04:54:33;;;;;;;5.10;2.30;;;;;;;-3.59;100.00;100818.50;109425;1252;74744;-56
2023/12/10 04:57:01;;;;;;;6.50;2.50;;;;;;;-3.59;100.00;100823.95;109419;1253;66906;-62
2023/12/10 04:59:29;;;;;;;11.70;2.80;;;;;;;-3.58;100.00;100826.63;109418;1252;72744;-56
2023/12/10 05:01:57;;;;;;;6.10;2.80;;;;;;;-3.57;100.00;100834.33;109448;1252;60172;-58
2023/12/10 05:04:24;;;;;;;8.50;2.80;;;;;;;-3.57;100.00;100828.56;109399;1252;59099;-56
2023/12/10 05:06:52;;;;;;;8.10;2.50;;;;;;;-3.55;100.00;100832.54;109408;1253;73785;-56
2023/12/10 05:09:20;;;;;;;8.10;2.70;;;;;;;-3.52;100.00;100833.42;109380;1256;66918;-62
2023/12/10 05:11:47;;;;;;;7.20;2.40;;;;;;;-3.50;100.00;100837.70;109383;1253;73066;-56
2023/12/10 05:14:15;;;;;;;13.30;3.30;;;;;;;-3.49;100.00;100844.80;109416;1252;60855;-58
2023/12/10 05:16:43;;;;;;;5.50;2.20;;;;;;;-3.47;100.00;100850.31;109424;1252;59998;-59
2023/12/10 05:19:11;;;;;;;8.60;2.40;;;;;;;-3.47;100.00;100850.80;109387;1253;74712;-68
2023/12/10 05:21:39;;;;;;;8.90;2.90;;;;;;;-3.47;100.00;100858.65;109439;1252;66117;-55
2023/12/10 05:24:06;;;;;;;6.60;2.70;;;;;;;-3.48;100.00;100854.60;109389;1252;71350;-56
2023/12/10 05:26:34;;;;;;;7.90;2.30;;;;;;;-3.48;100.00;100855.98;109371;1252;61090;-56
2023/12/10 05:29:01;;;;;;;9.20;2.40;;;;;;;-3.46;100.00;100857.07;109481;1254;59465;-56
2023/12/10 05:31:29;;;;;;;8.20;2.90;;;;;;;-3.47;100.00;100858.47;109360;1252;73407;-61
2023/12/10 05:33:57;;;;;;;5.00;2.10;;;;;;;-3.47;100.00;100860.54;109355;1253;67265;-56
2023/12/10 05:36:25;;;;;;;5.90;2.30;;;;;;;-3.48;100.00;100863.46;109428;1252;72404;-56
2023/12/10 05:38:53;;;;;;;8.60;2.70;;;;;;;-3.51;100.00;100863.95;109413;1252;60939;-56
2023/12/10 05:41:20;;;;;;;9.70;3.20;;;;;;;-3.53;100.00;100867.64;109459;1252;60099;-56
2023/12/10 05:43:48;;;;;;;12.70;2.40;;;;;;;-3.58;100.00;100868.23;109375;1252;74743;-57
2023/12/10 05:46:16;;;;;;;12.80;2.60;;;;;;;-3.60;100.00;100872.05;109401;1253;66859;-56
2023/12/10 05:48:43;;;;;;;5.80;3.00;;;;;;;-3.62;100.00;100870.47;109396;1253;72745;-56
2023/12/10 05:51:11;;;;;;;7.50;3.20;;;;;;;-3.66;100.00;100870.66;109386;1253;60914;-56
2023/12/10 05:53:39;;;;;;;7.40;2.90;;;;;;;-3.68;100.00;100868.19;109405;1252;59028;-59
2023/12/10 05:56:07;;;;;;;6.10;2.80;;;;;;;-3.68;100.00;100874.46;109271;1256;75124;-59
2023/12/10 05:58:35;;;;;;;12.30;2.70;;;;;;;-3.69;100.00;100868.54;109434;1252;66861;-55
2023/12/10 06:01:03;;;;;;;10.10;3.30;;;;;;;-3.70;100.00;100875.73;109312;1252;72720;-56
2023/12/10 06:03:31;;;;;;;13.40;3.10;;;;;;;-3.72;100.00;100871.43;109399;1252;60136;-56
2023/12/10 06:05:59;;;;;;;8.80;2.50;;;;;;;-3.72;100.00;100874.02;109426;1252;59006;-58
2023/12/10 06:08:27;;;;;;;8.50;3.30;;;;;;;-3.73;100.00;100868.63;109461;1252;73428;-55
2023/12/10 06:10:54;;;;;;;8.00;3.20;;;;;;;-3.73;100.00;100870.13;109468;1254;67241;-56
2023/12/10 06:13:22;;;;;;;14.00;3.20;;;;;;;-3.71;100.00;100863.95;109289;1253;71526;-57
2023/12/10 06:15:50;;;;;;;12.90;3.10;;;;;;;-3.72;100.00;100865.30;109417;1252;60950;-60
2023/12/10 06:18:17;;;;;;;7.50;2.80;;;;;;;-3.73;100.00;100866.90;109405;1253;59690;-57
2023/12/10 06:20:45;;;;;;;8.70;2.90;;;;;;;-3.74;100.00;100871.05;109437;1253;74801;-56
2023/12/10 06:23:13;;;;;;;13.20;3.30;;;;;;;-3.75;100.00;100872.44;109425;1253;65981;-56
2023/12/10 06:25:41;;;;;;;9.00;2.60;;;;;;;-3.76;100.00;100878.11;109397;1253;74817;-57
2023/12/10 06:28:08;;;;;;;11.10;3.00;;;;;;;-3.78;100.00;100873.14;109322;1253;60936;-60
2023/12/10 06:30:36;;;;;;;9.00;3.50;;;;;;;-3.79;100.00;100878.25;109428;1253;59033;-58
2023/12/10 06:33:03;;;;;;;11.00;4.20;;;;;;;-3.79;100.00;100878.59;109442;1252;74793;-58
2023/12/10 06:35:31;;;;;;;14.60;5.80;;;;;;;-3.77;100.00;100877.61;109449;1252;66937;-58
2023/12/10 06:37:59;;;;;;;8.20;3.90;;;;;;;-3.76;100.00;100881.00;109442;1252;71611;-59
2023/12/10 06:40:26;;;;;;;13.10;4.30;;;;;;;-3.76;100.00;100890.81;109332;1252;60869;-58
2023/12/10 06:42:54;;;;;;;9.90;3.10;;;;;;;-3.78;100.00;100898.41;109396;1252;60149;-58
2023/12/10 06:45:22;;;;;;;13.50;4.60;;;;;;;-3.79;100.00;100901.88;109455;1252;74679;-58
2023/12/10 06:47:50;;;;;;;11.50;3.50;;;;;;;-3.79;100.00;100906.96;109402;1252;65683;-58
2023/12/10 06:50:17;;;;;;;10.00;3.40;;;;;;;-3.78;100.00;100914.52;109409;1252;71689;-66
2023/12/10 06:52:45;;;;;;;12.40;4.30;;;;;;;-3.78;100.00;100917.11;109369;1252;61697;-58
2023/12/10 06:55:13;;;;;;;12.30;3.40;;;;;;;-3.80;100.00;100918.02;109425;1252;60069;-57
2023/12/10 06:57:41;;;;;;;11.20;3.60;;;;;;;-3.81;100.00;100915.54;109293;1252;73450;-56
2023/12/10 07:00:10;;;;;;;13.00;3.70;;;;;;;-3.81;100.00;100915.54;109451;1251;67007;-56
2023/12/10 07:02:37;;;;;;;10.30;5.20;;;;;;;-3.79;100.00;100921.20;109375;1253;72409;-66
2023/12/10 07:05:06;;;;;;;10.40;3.90;;;;;;;-3.79;100.00;100919.33;109417;1252;59507;-56
2023/12/10 07:07:33;;;;;;;9.20;3.10;;;;;;;-3.77;100.00;100923.30;109410;1251;59401;-56
2023/12/10 07:10:01;;;;;;;9.70;3.30;;;;;;;-3.75;100.00;100919.66;109389;1252;73660;-58
2023/12/10 07:12:29;;;;;;;8.20;3.80;;;;;;;-3.76;100.00;100925.97;109402;1251;66331;-58
2023/12/10 07:14:57;;;;;;;7.80;2.90;;;;;;;-3.75;100.00;100926.79;109340;1252;72578;-55
2023/12/10 07:17:24;;;;;;;10.60;3.20;;;;;;;-3.74;100.00;100931.52;109366;1252;60920;-58
2023/12/10 07:19:52;;;;;;;6.80;2.70;;;;;;;-3.75;100.00;100928.50;109382;1252;58937;-59
2023/12/10 07:22:21;;;;;;;10.20;3.60;;;;;;;-3.73;100.00;100938.59;109435;1253;74705;-58
2023/12/10 07:24:48;;;;;;;16.00;3.90;;;;;;;-3.73;100.00;100938.06;109409;1253;66972;-57
2023/12/10 07:27:16;;;;;;;6.90;2.80;;;;;;;-3.71;100.00;100943.41;109282;1253;72729;-56
2023/12/10 07:29:44;;;;;;;11.30;3.30;;;;;;;-3.70;100.00;100947.58;109396;1252;60995;-56
2023/12/10 07:32:11;;;;;;;9.20;3.60;;;;;;;-3.72;100.00;100941.77;109408;1252;59023;-56
2023/12/10 07:34:39;;;;;;;14.40;3.70;;;;;;;-3.74;100.00;100942.71;109416;1251;72721;-67
2023/12/10 07:37:08;;;;;;;9.90;3.60;;;;;;;-3.71;100.00;100945.10;109465;1251;65881;-58
2023/12/10 07:39:36;;;;;;;8.30;3.30;;;;;;;-3.69;100.00;100943.96;109399;1252;71442;-59
2023/12/10 07:42:04;;;;;;;8.20;3.30;;;;;;;-3.68;100.00;100949.05;109389;1253;61699;-59
2023/12/10 07:44:32;;;;;;;14.20;4.70;;;;;;;-3.70;100.00;100950.49;109407;1252;62184;-58
2023/12/10 07:46:59;;;;;;;7.40;2.80;;;;;;;-3.71;100.00;100953.45;109376;1252;73155;-58
2023/12/10 07:49:27;;;;;;;12.60;3.50;;;;;;;-3.72;100.00;100943.27;109455;1252;66182;-59
2023/12/10 07:51:55;;;;;;;9.20;3.40;;;;;;;-3.70;100.00;100947.27;109369;1252;72047;-58
2023/12/10 07:54:23;;;;;;;11.00;3.20;;;;;;;-3.69;100.00;100949.73;109418;1253;58949;-58
2023/12/10 07:56:51;;;;;;;14.00;4.10;;;;;;;-3.67;100.00;100951.03;109414;1251;60131;-64
2023/12/10 07:59:19;;;;;;;10.80;4.60;;;;;;;-3.64;100.00;100947.34;109437;1253;75352;-59
2023/12/10 08:01:49;;;;;;;10.10;4.30;;;;;;;-3.63;100.00;100947.80;109410;1251;66926;-59
2023/12/10 08:04:17;;;;;;;11.30;4.60;;;;;;;-3.61;100.00;100939.71;109410;1253;70863;-58
2023/12/10 08:06:45;;;;;;;11.30;4.20;;;;;;;-3.61;100.00;100942.92;109414;1252;59336;-60
2023/12/10 08:09:13;;;;;;;9.70;4.20;;;;;;;-3.60;100.00;100937.76;109299;1254;59026;-55
2023/12/10 08:11:40;;;;;;;10.10;4.30;;;;;;;-3.55;100.00;100943.30;109407;1253;74795;-57
2023/12/10 08:14:09;;;;;;;12.80;4.20;;;;;;;-3.51;100.00;100939.75;109446;1252;65787;-56
2023/12/10 08:16:37;;;;;;;13.20;3.50;;;;;;;-3.50;100.00;100937.62;109438;1253;70894;-56
2023/12/10 08:19:05;;;;;;;12.50;3.70;;;;;;;-3.50;100.00;100935.23;109385;1253;59046;-55
2023/12/10 08:21:33;;;;;;;8.60;2.70;;;;;;;-3.51;100.00;100933.25;109413;1253;60055;-59
2023/12/10 08:24:00;;;;;;;6.70;2.60;;;;;;;-3.55;100.00;100928.36;109404;1253;74729;-59
2023/12/10 08:26:28;;;;;;;11.60;3.50;;;;;;;-3.60;100.00;100926.39;109387;1253;66939;-57
2023/12/10 08:28:56;;;;;;;6.40;2.70;;;;;;;-3.62;100.00;100927.54;109417;1253;72877;-57
2023/12/10 08:31:25;;;;;;;10.70;3.40;;;;;;;-3.63;100.00;100923.33;109341;1256;59326;-59
2023/12/10 08:33:53;;;;;;;9.80;2.90;;;;;;;-3.63;100.00;100928.27;109462;1252;58982;-57
2023/12/10 08:36:21;;;;;;;10.90;4.60;;;;;;;-3.64;100.00;100924.73;109412;1252;73075;-56
2023/12/10 08:38:48;;;;;;;13.60;2.90;;;;;;;-3.64;100.00;100927.98;109376;1254;65799;-56
2023/12/10 08:41:16;;;;;;;8.60;2.70;;;;;;;-3.68;100.00;100932.19;109293;1252;71451;-57
2023/12/10 08:43:44;;;;;;;7.60;3.30;;;;;;;-3.68;100.00;100934.40;109430;1254;60940;-56
2023/12/10 08:46:11;;;;;;;21.50;5.50;;;;;;;-3.68;100.00;100933.92;109424;1252;59198;-56
2023/12/10 08:48:42;;;;;;;7.60;3.20;;;;;;;-3.72;100.00;100929.89;109462;1251;74793;-56
2023/12/10 08:51:10;;;;;;;8.60;2.90;;;;;;;-3.78;100.00;100937.98;109415;1253;66937;-56
2023/12/10 08:53:37;;;;;;;12.30;3.00;;;;;;;-3.72;100.00;100940.71;109406;1253;71482;-56
2023/12/10 08:56:05;;;;;;;9.60;3.10;;;;;;;-3.69;100.00;100942.09;109401;1251;61048;-56
2023/12/10 08:58:33;;;;;;;8.70;3.00;;;;;;;-3.68;100.00;100943.58;109426;1252;60865;-57
2023/12/10 09:01:01;;;;;;;11.90;3.50;;;;;;;-3.68;100.00;100940.86;109405;1253;74686;-56
2023/12/10 09:03:29;;;;;;;8.10;3.40;;;;;;;-3.69;100.00;100944.33;109440;1253;67401;-56
2023/12/10 09:05:58;;;;;;;10.30;2.90;;;;;;;-3.72;100.00;100942.92;109355;1253;71471;-57
2023/12/10 09:08:26;;;;;;;8.50;3.00;;;;;;;-3.72;100.00;100941.92;109404;1253;60974;-56
2023/12/10 09:10:54;;;;;;;7.20;2.20;;;;;;;-3.71;100.00;100937.30;109405;1252;58922;-65
2023/12/10 09:13:22;;;;;;;10.40;3.50;;;;;;;-3.69;100.00;100937.03;109420;1253;73014;-56
2023/12/10 09:15:54;;;;;;;11.40;3.50;;;;;;;-3.68;100.00;100936.96;109385;1253;69356;-56
2023/12/10 09:18:21;;;;;;;7.20;2.90;;;;;;;-3.67;100.00;100941.19;109450;1251;72752;-56
2023/12/10 09:20:49;;;;;;;14.50;3.90;;;;;;;-3.68;100.00;100939.33;109465;1253;60899;-56
2023/12/10 09:23:17;;;;;;;12.40;3.90;;;;;;;-3.64;100.00;100943.57;109349;1252;58963;-57
2023/12/10 09:25:44;;;;;;;11.30;3.70;;;;;;;-3.62;100.00;100938.08;109431;1253;74827;-56
2023/12/10 09:28:12;;;;;;;11.60;3.10;;;;;;;-3.59;100.00;100934.17;109298;1252;64722;-56
2023/12/10 09:30:40;;;;;;;11.00;3.20;;;;;;;-3.58;100.00;100935.14;109397;1252;72358;-56
2023/12/10 09:33:08;;;;;;;11.50;3.40;;;;;;;-3.58;100.00;100934.31;109395;1253;61556;-56
2023/12/10 09:35:36;;;;;;;13.80;4.30;;;;;;;-3.59;100.00;100934.34;109378;1253;59990;-56
2023/12/10 09:38:04;;;;;;;9.40;4.30;;;;;;;-3.59;100.00;100935.89;109397;1253;74723;-57
2023/12/10 09:40:33;;;;;;;13.80;4.10;;;;;;;-3.57;100.00;100939.53;109421;1253;65845;-56
2023/12/10 09:43:03;;;;;;;11.40;4.10;;;;;;;-3.58;100.00;100934.81;109425;1253;72770;-56
2023/12/10 09:45:32;;;;;;;10.70;3.40;;;;;;;-3.59;100.00;100940.32;109357;1253;60950;-59
2023/12/10 09:48:01;;;;;;;7.20;3.10;;;;;;;-3.61;100.00;100936.45;109441;1252;59033;-58
2023/12/10 09:50:30;;;;;;;8.80;3.40;;;;;;;-3.62;100.00;100938.73;109283;1259;75909;-57
2023/12/10 09:52:58;;;;;;;14.80;3.90;;;;;;;-3.62;100.00;100938.41;109489;1253;65678;-57
2023/12/10 09:55:26;;;;;;;15.80;5.80;;;;;;;-3.62;100.00;100937.88;109424;1254;72737;-63
2023/12/10 09:57:53;;;;;;;11.40;4.90;;;;;;;-3.60;100.00;100939.31;109340;1251;59599;-57
2023/12/10 10:00:21;;;;;;;13.50;6.10;;;;;;;-3.61;100.00;100940.04;109403;1256;59298;-57
2023/12/10 10:02:49;;;;;;;34.80;14.00;;;;;;;-3.64;100.00;100940.02;109441;1253;74730;-59
2023/12/10 10:05:17;;;;;;;21.50;7.70;;;;;;;-3.67;100.00;100947.13;109471;1253;65793;-56
2023/12/10 10:07:44;;;;;;;26.50;10.10;;;;;;;-3.70;100.00;100945.41;109421;1252;71159;-57
2023/12/10 10:10:12;;;;;;;32.60;14.50;;;;;;;-3.72;100.00;100947.34;109391;1253;60939;-56
2023/12/10 10:12:40;;;;;;;15.10;6.50;;;;;;;-3.72;100.00;100944.30;109429;1253;60096;-57
2023/12/10 10:15:08;;;;;;;12.70;6.70;;;;;;;-3.74;100.00;100945.61;109173;1253;74781;-57
2023/12/10 10:17:36;;;;;;;11.70;4.00;;;;;;;-3.77;100.00;100940.83;109450;1253;66954;-64
2023/12/10 10:20:04;;;;;;;11.10;4.40;;;;;;;-3.79;100.00;100937.35;109379;1254;71967;-56
2023/12/10 10:22:32;;;;;;;9.90;3.90;;;;;;;-3.79;100.00;100931.91;109403;1252;60863;-57
2023/12/10 10:25:00;;;;;;;7.50;3.50;;;;;;;-3.79;100.00;100931.08;109443;1251;59081;-57
2023/12/10 10:27:28;;;;;;;12.10;4.10;;;;;;;-3.82;100.00;100929.50;109415;1253;73689;-58
2023/12/10 10:29:56;;;;;;;15.90;4.40;;;;;;;-3.83;100.00;100928.90;109413;1253;67114;-57
2023/12/10 10:32:24;;;;;;;12.20;4.50;;;;;;;-3.85;100.00;100931.34;109402;1253;72737;-57
2023/12/10 10:34:52;;;;;;;10.40;4.00;;;;;;;-3.86;100.00;100928.88;109413;1253;60385;-57
2023/12/10 10:37:20;;;;;;;10.70;4.90;;;;;;;-3.88;100.00;100934.73;109422;1252;60013;-57
2023/12/10 10:39:49;;;;;;;9.40;3.50;;;;;;;-3.93;100.00;100933.76;109406;1253;73394;-65
2023/12/10 10:42:18;;;;;;;8.90;4.30;;;;;;;-3.96;100.00;100927.13;109439;1252;65762;-57
2023/12/10 10:44:48;;;;;;;11.20;4.90;;;;;;;-3.96;100.00;100924.77;109404;1253;71802;-57
2023/12/10 10:47:18;;;;;;;14.20;4.10;;;;;;;-3.99;100.00;100924.58;109437;1253;59652;-57
2023/12/10 10:49:57;;;;;;;10.60;4.00;;;;;;;-4.01;100.00;100928.04;109463;1256;59370;-61
2023/12/10 10:52:44;;;;;;;10.10;4.50;;;;;;;-4.03;100.00;100924.06;109399;1253;74786;-56
2023/12/10 10:55:12;;;;;;;10.30;4.30;;;;;;;-4.02;100.00;100921.84;109321;1257;67044;-57
2023/12/10 10:57:40;;;;;;;10.20;4.20;;;;;;;-4.01;100.00;100925.67;109216;1253;72359;-67
2023/12/10 11:00:17;;;;;;;10.90;4.00;;;;;;;-4.03;100.00;100924.39;109428;1254;59973;-56
2023/12/10 11:02:51;;;;;;;10.10;3.80;;;;;;;-4.05;100.00;100922.98;109368;1253;60117;-56
2023/12/10 11:05:45;;;;;;;9.70;3.50;;;;;;;-4.06;100.00;100920.83;109302;1253;73451;-57
2023/12/10 11:08:13;;;;;;;11.40;5.30;;;;;;;-4.05;100.00;100920.27;109304;1252;65540;-58
2023/12/10 11:10:45;;;;;;;14.00;6.90;;;;;;;-4.03;100.00;100921.02;109151;1252;72804;-56